createdAt,value
2018-09-23T00:01:55.532Z,10.73
2018-09-23T00:04:23.562Z,10.53
2018-09-23T00:06:51.560Z,11.67
2018-09-23T00:09:19.588Z,11.90
2018-09-23T00:11:47.682Z,10.57
2018-09-23T00:14:16.545Z,12.10
2018-09-23T00:16:44.772Z,11.83
2018-09-23T00:19:12.810Z,11.40
2018-09-23T00:21:40.833Z,12.80
2018-09-23T00:24:08.861Z,13.03
2018-09-23T00:26:36.872Z,12.73
2018-09-23T00:29:04.938Z,13.80
2018-09-23T00:31:32.989Z,13.37
2018-09-23T00:34:01.132Z,13.40
2018-09-23T00:36:29.232Z,12.13
2018-09-23T00:38:57.393Z,13.27
2018-09-23T00:41:25.425Z,12.90
2018-09-23T00:43:53.456Z,13.47
2018-09-23T00:46:21.484Z,13.90
2018-09-23T00:48:49.516Z,13.33
2018-09-23T00:51:17.592Z,13.83
2018-09-23T00:53:45.609Z,15.40
2018-09-23T00:56:13.660Z,13.00
2018-09-23T00:58:41.653Z,13.27
2018-09-23T01:01:09.713Z,14.63
2018-09-23T01:03:37.744Z,14.30
2018-09-23T01:06:05.820Z,13.97
2018-09-23T01:08:33.852Z,14.33
2018-09-23T01:11:01.850Z,13.07
2018-09-23T01:13:29.892Z,15.00
2018-09-23T01:15:57.959Z,14.70
2018-09-23T01:18:25.976Z,14.13
2018-09-23T01:20:53.986Z,15.20
2018-09-23T01:23:22.009Z,13.70
2018-09-23T01:25:51.096Z,14.53
2018-09-23T01:28:19.100Z,14.00
2018-09-23T01:30:47.140Z,14.73
2018-09-23T01:33:15.129Z,15.50
2018-09-23T01:35:43.334Z,14.17
2018-09-23T01:38:11.424Z,16.37
2018-09-23T01:40:39.461Z,16.53
2018-09-23T01:43:07.477Z,16.97
2018-09-23T01:45:35.501Z,15.97
2018-09-23T01:48:03.504Z,16.17
2018-09-23T01:50:31.521Z,15.53
2018-09-23T01:52:59.569Z,15.90
2018-09-23T01:55:27.599Z,17.33
2018-09-23T01:57:55.585Z,16.80
2018-09-23T02:00:23.606Z,16.37
2018-09-23T02:02:51.620Z,16.40
2018-09-23T02:05:19.629Z,16.90
2018-09-23T02:07:47.688Z,16.20
2018-09-23T02:10:15.744Z,16.53
2018-09-23T02:12:43.812Z,16.10
2018-09-23T02:15:12.020Z,16.40
2018-09-23T02:17:40.009Z,17.00
2018-09-23T02:20:08.017Z,17.50
2018-09-23T02:22:36.046Z,18.27
2018-09-23T02:25:04.089Z,17.70
2018-09-23T02:27:32.129Z,16.70
2018-09-23T02:30:00.169Z,17.57
2018-09-23T02:32:28.212Z,17.03
2018-09-23T02:34:56.193Z,18.17
2018-09-23T02:37:24.282Z,17.80
2018-09-23T02:39:52.285Z,17.40
2018-09-23T02:42:20.309Z,17.63
2018-09-23T02:44:48.432Z,19.00
2018-09-23T02:47:16.448Z,19.67
2018-09-23T02:49:44.503Z,18.10
2018-09-23T02:52:12.604Z,17.10
2018-09-23T02:54:40.617Z,18.27
2018-09-23T02:57:08.606Z,17.27
2018-09-23T02:59:36.593Z,17.70
2018-09-23T03:02:04.636Z,16.87
2018-09-23T03:04:32.636Z,18.67
2018-09-23T03:07:01.096Z,18.63
2018-09-23T03:09:29.019Z,16.93
2018-09-23T03:11:57.053Z,17.20
2018-09-23T03:14:25.025Z,18.63
2018-09-23T03:16:53.065Z,18.00
2018-09-23T03:19:21.072Z,18.70
2018-09-23T03:21:49.086Z,18.53
2018-09-23T03:24:17.116Z,17.00
2018-09-23T03:26:45.117Z,16.73
2018-09-23T03:29:13.120Z,17.40
2018-09-23T03:31:41.120Z,17.87
2018-09-23T03:34:09.105Z,17.13
2018-09-23T03:36:37.149Z,18.63
2018-09-23T03:39:06.605Z,17.90
2018-09-23T03:41:34.768Z,16.80
2018-09-23T03:44:02.812Z,17.87
2018-09-23T03:46:30.812Z,17.50
2018-09-23T03:48:59.126Z,17.27
2018-09-23T03:51:27.229Z,16.50
2018-09-23T03:53:55.285Z,17.43
2018-09-23T03:56:23.351Z,17.63
2018-09-23T03:58:51.329Z,17.83
2018-09-23T04:01:19.335Z,17.00
2018-09-23T04:03:47.385Z,16.60
2018-09-23T04:06:15.489Z,18.07
2018-09-23T04:08:43.544Z,16.90
2018-09-23T04:11:11.558Z,16.70
2018-09-23T04:13:39.593Z,17.70
2018-09-23T04:16:07.596Z,17.17
2018-09-23T04:18:35.636Z,15.60
2018-09-23T04:21:03.942Z,16.70
2018-09-23T04:23:31.989Z,17.90
2018-09-23T04:25:59.988Z,17.30
2018-09-23T04:28:27.999Z,17.60
2018-09-23T04:30:56.016Z,15.70
2018-09-23T04:33:24.028Z,16.30
2018-09-23T04:35:52.045Z,14.80
2018-09-23T04:38:20.073Z,16.60
2018-09-23T04:40:48.175Z,15.70
2018-09-23T04:43:16.218Z,17.73
2018-09-23T04:45:44.237Z,18.90
2018-09-23T04:48:12.273Z,17.40
2018-09-23T04:50:40.477Z,17.20
2018-09-23T04:53:08.482Z,17.80
2018-09-23T04:55:36.481Z,18.00
2018-09-23T04:58:04.528Z,17.40
2018-09-23T05:00:32.508Z,17.60
2018-09-23T05:03:00.516Z,20.13
2018-09-23T05:05:28.506Z,18.43
2018-09-23T05:07:56.543Z,18.50
2018-09-23T05:10:24.574Z,19.13
2018-09-23T05:12:52.613Z,17.57
2018-09-23T05:15:20.616Z,18.97
2018-09-23T05:17:48.636Z,18.63
2018-09-23T05:20:16.664Z,16.73
2018-09-23T05:22:44.676Z,18.00
2018-09-23T05:25:12.697Z,18.90
2018-09-23T05:27:40.724Z,17.10
2018-09-23T05:30:08.730Z,17.17
2018-09-23T05:32:36.837Z,17.80
2018-09-23T05:35:04.837Z,17.93
2018-09-23T05:37:32.849Z,18.50
2018-09-23T05:40:00.870Z,18.87
2018-09-23T05:42:28.902Z,18.80
2018-09-23T05:44:56.901Z,18.60
2018-09-23T05:47:24.897Z,17.70
2018-09-23T05:49:52.965Z,18.80
2018-09-23T05:52:21.020Z,18.97
2018-09-23T05:54:49.032Z,18.50
2018-09-23T05:57:17.060Z,19.00
2018-09-23T05:59:45.082Z,19.33
2018-09-23T06:02:13.325Z,19.97
2018-09-23T06:04:41.415Z,19.03
2018-09-23T06:07:09.457Z,19.77
2018-09-23T06:09:37.461Z,19.50
2018-09-23T06:12:05.537Z,19.20
2018-09-23T06:14:33.569Z,19.70
2018-09-23T06:17:01.571Z,19.40
2018-09-23T06:19:29.593Z,19.30
2018-09-23T06:21:57.596Z,19.37
2018-09-23T06:24:25.683Z,20.93
2018-09-23T06:26:53.680Z,21.30
2018-09-23T06:29:21.676Z,20.20
2018-09-23T06:31:49.668Z,20.27
2018-09-23T06:34:17.704Z,19.97
2018-09-23T06:36:45.805Z,21.60
2018-09-23T06:39:13.825Z,19.17
2018-09-23T06:41:41.821Z,20.40
2018-09-23T06:44:09.937Z,19.47
2018-09-23T06:46:37.925Z,19.67
2018-09-23T06:49:06.035Z,20.47
2018-09-23T06:51:34.060Z,20.00
2018-09-23T06:54:02.136Z,19.50
2018-09-23T06:56:30.153Z,22.80
2018-09-23T06:58:58.243Z,19.40
2018-09-23T07:01:26.329Z,21.10
2018-09-23T07:03:54.340Z,20.43
2018-09-23T07:06:23.413Z,19.20
2018-09-23T07:08:51.440Z,19.47
2018-09-23T07:11:19.469Z,20.27
2018-09-23T07:13:47.454Z,19.27
2018-09-23T07:16:15.504Z,19.80
2018-09-23T07:18:43.561Z,19.30
2018-09-23T07:21:11.572Z,20.30
2018-09-23T07:23:39.653Z,19.90
2018-09-23T07:26:07.662Z,20.00
2018-09-23T07:28:35.738Z,19.83
2018-09-23T07:31:03.763Z,20.03
2018-09-23T07:33:31.932Z,21.23
2018-09-23T07:36:00.025Z,20.23
2018-09-23T07:38:28.137Z,19.53
2018-09-23T07:40:56.180Z,22.60
2018-09-23T07:43:24.188Z,22.77
2018-09-23T07:45:52.248Z,22.63
2018-09-23T07:48:20.249Z,22.30
2018-09-23T07:50:48.356Z,20.70
2018-09-23T07:53:16.364Z,22.20
2018-09-23T07:55:44.700Z,23.20
2018-09-23T07:58:12.721Z,21.13
2018-09-23T08:00:40.706Z,20.20
2018-09-23T08:03:08.705Z,21.97
2018-09-23T08:05:36.726Z,21.37
2018-09-23T08:08:04.807Z,21.70
2018-09-23T08:10:32.822Z,21.40
2018-09-23T08:13:01.095Z,20.40
2018-09-23T08:15:28.912Z,21.03
2018-09-23T08:17:56.913Z,19.93
2018-09-23T08:20:25.057Z,19.77
2018-09-23T08:22:53.135Z,21.23
2018-09-23T08:25:21.182Z,20.10
2018-09-23T08:27:49.230Z,20.00
2018-09-23T08:30:17.348Z,21.70
2018-09-23T08:32:45.465Z,21.37
2018-09-23T08:35:13.525Z,19.93
2018-09-23T08:37:41.570Z,20.00
2018-09-23T08:40:09.635Z,20.07
2018-09-23T08:42:37.876Z,19.50
2018-09-23T08:45:06.075Z,21.00
2018-09-23T08:47:34.184Z,19.20
2018-09-23T08:50:02.209Z,20.10
2018-09-23T08:52:30.262Z,20.80
2018-09-23T08:54:58.291Z,19.70
2018-09-23T08:57:26.368Z,19.20
2018-09-23T08:59:54.429Z,19.03
2018-09-23T09:02:22.478Z,17.67
2018-09-23T09:04:50.542Z,17.70
2018-09-23T09:07:18.610Z,17.80
2018-09-23T09:09:46.660Z,17.37
2018-09-23T09:12:14.686Z,18.30
2018-09-23T09:14:42.688Z,17.13
2018-09-23T09:17:10.694Z,16.97
2018-09-23T09:19:38.697Z,17.47
2018-09-23T09:22:06.772Z,16.20
2018-09-23T09:24:34.973Z,13.43
2018-09-23T09:27:03.027Z,15.20
2018-09-23T09:29:30.997Z,13.57
2018-09-23T09:31:59.029Z,11.57
2018-09-23T09:34:27.020Z,11.70
2018-09-23T09:36:55.149Z,12.70
2018-09-23T09:39:23.227Z,14.53
2018-09-23T09:41:51.237Z,13.13
2018-09-23T09:44:19.236Z,11.83
2018-09-23T09:46:47.301Z,11.57
2018-09-23T09:49:15.426Z,11.87
2018-09-23T09:51:43.473Z,11.37
2018-09-23T09:54:12.548Z,11.67
2018-09-23T09:56:40.673Z,10.57
2018-09-23T09:59:08.709Z,11.67
2018-09-23T10:01:36.743Z,11.87
2018-09-23T10:04:04.812Z,11.97
2018-09-23T10:06:32.914Z,11.10
2018-09-23T10:09:00.944Z,11.67
2018-09-23T10:11:29.027Z,10.73
2018-09-23T10:13:56.985Z,11.23
2018-09-23T10:16:25.024Z,12.77
2018-09-23T10:18:53.072Z,11.43
2018-09-23T10:21:21.117Z,13.60
2018-09-23T10:23:49.112Z,11.10
2018-09-23T10:26:17.125Z,12.40
2018-09-23T10:28:45.165Z,13.07
2018-09-23T10:31:13.260Z,12.80
2018-09-23T10:33:41.412Z,11.67
2018-09-23T10:36:09.497Z,12.17
2018-09-23T10:38:37.433Z,14.10
2018-09-23T10:41:05.445Z,12.07
2018-09-23T10:43:33.477Z,12.40
2018-09-23T10:46:01.497Z,12.10
2018-09-23T10:48:29.693Z,12.30
2018-09-23T10:50:57.757Z,12.67
2018-09-23T10:53:25.825Z,13.20
2018-09-23T10:55:53.881Z,12.03
2018-09-23T10:58:21.919Z,11.97
2018-09-23T11:00:49.989Z,11.60
2018-09-23T11:03:18.050Z,11.00
2018-09-23T11:05:46.098Z,11.00
2018-09-23T11:08:14.139Z,11.63
2018-09-23T11:10:42.153Z,12.23
2018-09-23T11:13:10.316Z,11.23
2018-09-23T11:15:38.393Z,10.57
2018-09-23T11:18:06.679Z,10.67
2018-09-23T11:20:34.701Z,11.03
2018-09-23T11:23:02.772Z,11.30
2018-09-23T11:25:30.788Z,9.40
2018-09-23T11:27:58.817Z,11.60
2018-09-23T11:30:26.845Z,10.93
2018-09-23T11:32:54.880Z,10.87
2018-09-23T11:35:22.895Z,11.63
2018-09-23T11:37:50.967Z,11.27
2018-09-23T11:40:19.193Z,11.73
2018-09-23T11:42:47.240Z,11.30
2018-09-23T11:45:15.630Z,12.13
2018-09-23T11:47:43.673Z,11.27
2018-09-23T11:50:11.705Z,11.60
2018-09-23T11:52:39.815Z,10.97
2018-09-23T11:55:07.973Z,11.47
2018-09-23T11:57:36.009Z,11.70
2018-09-23T12:00:04.714Z,11.88
2018-09-23T12:02:32.753Z,11.80
2018-09-23T12:05:00.771Z,12.60
2018-09-23T12:07:28.773Z,13.30
2018-09-23T12:09:56.769Z,13.90
2018-09-23T12:12:24.797Z,13.57
2018-09-23T12:14:52.860Z,14.10
2018-09-23T12:17:20.903Z,13.13
2018-09-23T12:19:48.892Z,13.77
2018-09-23T12:22:16.917Z,15.10
2018-09-23T12:24:44.981Z,14.33
2018-09-23T12:27:12.975Z,13.80
2018-09-23T12:29:41.079Z,14.40
2018-09-23T12:32:10.020Z,14.50
2018-09-23T12:34:38.204Z,14.20
2018-09-23T12:37:06.533Z,14.73
2018-09-23T12:39:34.565Z,15.17
2018-09-23T12:42:03.159Z,15.40
2018-09-23T12:44:31.208Z,16.20
2018-09-23T12:46:59.292Z,14.03
2018-09-23T12:49:28.190Z,11.67
2018-09-23T12:51:56.408Z,10.77
2018-09-23T12:54:24.758Z,6.37
2018-09-23T12:56:52.748Z,6.60
2018-09-23T12:59:20.990Z,5.80
2018-09-23T13:01:49.002Z,4.80
2018-09-23T13:04:17.044Z,5.47
2018-09-23T13:06:45.096Z,6.30
2018-09-23T13:09:13.209Z,6.43
2018-09-23T13:11:41.318Z,6.50
2018-09-23T13:14:09.621Z,7.23
2018-09-23T13:16:37.667Z,5.43
2018-09-23T13:19:05.920Z,4.20
2018-09-23T13:21:34.939Z,5.30
2018-09-23T13:24:02.942Z,5.60
2018-09-23T13:26:30.973Z,6.23
2018-09-23T13:28:59.161Z,4.83
2018-09-23T13:31:27.156Z,5.33
2018-09-23T13:33:55.201Z,5.97
2018-09-23T13:36:23.225Z,5.47
2018-09-23T13:38:51.269Z,6.50
2018-09-23T13:41:19.266Z,7.23
2018-09-23T13:43:47.268Z,8.07
2018-09-23T13:46:15.300Z,6.97
2018-09-23T13:48:43.304Z,6.67
2018-09-23T13:51:11.305Z,6.63
2018-09-23T13:53:39.343Z,6.83
2018-09-23T13:56:07.341Z,6.10
2018-09-23T13:58:35.359Z,6.57
2018-09-23T14:01:03.417Z,5.20
2018-09-23T14:03:31.425Z,5.57
2018-09-23T14:05:59.418Z,4.60
2018-09-23T14:08:27.425Z,3.97
2018-09-23T14:10:55.445Z,4.43
2018-09-23T14:13:23.497Z,3.87
2018-09-23T14:15:52.081Z,4.20
2018-09-23T14:18:20.101Z,4.10
2018-09-23T14:20:48.137Z,4.10
2018-09-23T14:23:16.157Z,3.63
2018-09-23T14:25:44.133Z,4.20
2018-09-23T14:28:12.191Z,3.47
2018-09-23T14:30:40.209Z,3.30
2018-09-23T14:33:08.217Z,3.80
2018-09-23T14:35:36.416Z,3.97
2018-09-23T14:38:04.353Z,3.83
2018-09-23T14:40:32.376Z,3.70
2018-09-23T14:43:00.418Z,4.60
2018-09-23T14:45:28.502Z,5.03
2018-09-23T14:47:56.501Z,5.33
2018-09-23T14:50:24.541Z,4.83
2018-09-23T14:52:52.564Z,4.10
2018-09-23T14:55:20.581Z,4.47
2018-09-23T14:57:48.618Z,4.53
2018-09-23T15:00:16.650Z,4.27
2018-09-23T15:02:44.690Z,4.93
2018-09-23T15:05:12.750Z,5.13
2018-09-23T15:07:40.899Z,5.37
2018-09-23T15:10:08.937Z,5.90
2018-09-23T15:12:36.984Z,6.47
2018-09-23T15:15:05.197Z,6.40
2018-09-23T15:17:33.346Z,8.13
2018-09-23T15:20:01.349Z,9.43
2018-09-23T15:22:29.465Z,6.70
2018-09-23T15:24:57.468Z,5.60
2018-09-23T15:27:25.495Z,5.67
2018-09-23T15:29:53.553Z,4.70
2018-09-23T15:32:21.646Z,4.57
2018-09-23T15:34:49.657Z,4.37
2018-09-23T15:37:18.221Z,3.90
2018-09-23T15:39:46.285Z,3.37
2018-09-23T15:42:14.364Z,3.40
2018-09-23T15:44:42.364Z,3.30
2018-09-23T15:47:10.404Z,2.90
2018-09-23T15:49:38.417Z,3.13
2018-09-23T15:52:06.604Z,3.43
2018-09-23T15:54:34.596Z,3.17
2018-09-23T15:57:02.599Z,2.53
2018-09-23T15:59:30.625Z,3.70
2018-09-23T16:01:58.643Z,2.80
2018-09-23T16:04:26.834Z,2.63
2018-09-23T16:06:54.783Z,2.70
2018-09-23T16:09:22.800Z,2.67
2018-09-23T16:11:51.096Z,2.53
2018-09-23T16:14:19.125Z,2.43
2018-09-23T16:16:47.148Z,2.33
2018-09-23T16:19:15.178Z,2.00
2018-09-23T16:21:43.133Z,2.17
2018-09-23T16:24:11.227Z,2.07
2018-09-23T16:26:39.213Z,1.80
2018-09-23T16:29:07.432Z,2.23
2018-09-23T16:31:35.437Z,2.00
2018-09-23T16:34:03.439Z,1.60
2018-09-23T16:36:31.432Z,2.20
2018-09-23T16:38:59.559Z,2.10
2018-09-23T16:41:27.548Z,1.63
2018-09-23T16:43:55.564Z,1.90
2018-09-23T16:46:23.602Z,2.17
2018-09-23T16:48:51.608Z,2.23
2018-09-23T16:51:19.637Z,2.17
2018-09-23T16:53:47.887Z,2.60
2018-09-23T16:56:16.030Z,3.30
2018-09-23T16:58:44.030Z,1.93
2018-09-23T17:01:12.073Z,3.00
2018-09-23T17:03:40.072Z,3.00
2018-09-23T17:06:08.104Z,2.77
2018-09-23T17:08:36.184Z,2.33
2018-09-23T17:11:04.221Z,2.00
2018-09-23T17:13:32.225Z,2.50
2018-09-23T17:16:00.224Z,2.60
2018-09-23T17:18:28.256Z,2.30
2018-09-23T17:20:56.265Z,2.87
2018-09-23T17:23:24.285Z,2.87
2018-09-23T17:25:52.310Z,2.43
2018-09-23T17:28:20.341Z,4.53
2018-09-23T17:30:48.345Z,3.13
2018-09-23T17:33:16.376Z,2.40
2018-09-23T17:35:44.446Z,1.60
2018-09-23T17:38:12.604Z,3.10
2018-09-23T17:40:40.645Z,2.10
2018-09-23T17:43:08.717Z,1.90
2018-09-23T17:45:36.772Z,2.80
2018-09-23T17:48:04.968Z,2.13
2018-09-23T17:50:33.194Z,1.80
2018-09-23T17:53:01.263Z,1.23
2018-09-23T17:55:29.367Z,1.07
2018-09-23T17:57:57.584Z,1.60
2018-09-23T18:00:25.572Z,1.20
2018-09-23T18:02:53.600Z,1.80
2018-09-23T18:05:21.608Z,1.37
2018-09-23T18:07:49.634Z,1.57
2018-09-23T18:10:17.853Z,1.93
2018-09-23T18:12:46.122Z,1.70
2018-09-23T18:15:14.212Z,2.13
2018-09-23T18:17:42.221Z,1.40
2018-09-23T18:20:10.258Z,1.60
2018-09-23T18:22:38.434Z,1.77
2018-09-23T18:25:06.435Z,1.30
2018-09-23T18:27:35.543Z,1.60
2018-09-23T18:30:04.524Z,1.40
2018-09-23T18:32:32.653Z,2.17
2018-09-23T18:35:00.687Z,1.67
2018-09-23T18:37:28.807Z,1.63
2018-09-23T18:39:56.701Z,1.67
2018-09-23T18:42:24.748Z,1.50
2018-09-23T18:44:52.777Z,1.80
2018-09-23T18:47:20.785Z,1.80
2018-09-23T18:49:48.810Z,1.63
2018-09-23T18:52:16.945Z,2.13
2018-09-23T18:54:50.317Z,1.40
2018-09-23T18:57:18.341Z,1.90
2018-09-23T18:59:46.380Z,1.63
2018-09-23T19:02:14.421Z,2.20
2018-09-23T19:04:42.589Z,2.30
2018-09-23T19:07:10.643Z,2.20
2018-09-23T19:09:38.629Z,2.70
2018-09-23T19:12:06.640Z,2.27
2018-09-23T19:14:34.749Z,3.60
2018-09-23T19:17:02.805Z,4.17
2018-09-23T19:19:36.400Z,4.03
2018-09-23T19:22:07.463Z,4.07
2018-09-23T19:24:35.496Z,4.70
2018-09-23T19:27:03.520Z,4.80
2018-09-23T19:29:31.509Z,4.07
2018-09-23T19:31:59.536Z,4.90
2018-09-23T19:34:27.549Z,4.30
2018-09-23T19:36:55.604Z,4.27
2018-09-23T19:39:23.633Z,4.20
2018-09-23T19:41:51.677Z,2.90
2018-09-23T19:44:19.672Z,4.13
2018-09-23T19:46:47.724Z,3.70
2018-09-23T19:49:15.802Z,3.67
2018-09-23T19:51:43.745Z,3.33
2018-09-23T19:54:11.809Z,3.73
2018-09-23T19:56:39.988Z,3.23
2018-09-23T19:59:08.004Z,3.13
2018-09-23T20:01:36.065Z,2.87
2018-09-23T20:04:04.191Z,2.40
2018-09-23T20:06:32.217Z,2.03
2018-09-23T20:09:00.240Z,2.90
2018-09-23T20:11:28.288Z,1.93
2018-09-23T20:13:56.339Z,2.00
2018-09-23T20:16:24.364Z,1.70
2018-09-23T20:18:52.445Z,1.40
2018-09-23T20:21:20.454Z,1.60
2018-09-23T20:23:48.444Z,2.13
2018-09-23T20:26:16.553Z,1.60
2018-09-23T20:28:44.626Z,3.70
2018-09-23T20:31:12.667Z,1.80
2018-09-23T20:33:40.701Z,2.03
2018-09-23T20:36:08.723Z,1.30
2018-09-23T20:38:36.904Z,1.30
2018-09-23T20:41:04.892Z,1.40
2018-09-23T20:43:32.926Z,1.60
2018-09-23T20:46:00.961Z,1.80
2018-09-23T20:48:28.988Z,1.40
2018-09-23T20:50:56.980Z,1.87
2018-09-23T20:53:25.029Z,1.77
2018-09-23T20:55:53.047Z,2.90
2018-09-23T20:58:21.109Z,2.30
2018-09-23T21:00:49.164Z,1.67
2018-09-23T21:03:17.171Z,2.37
2018-09-23T21:05:45.335Z,2.10
2018-09-23T21:08:13.408Z,1.70
2018-09-23T21:10:41.410Z,1.97
2018-09-23T21:13:09.837Z,2.17
2018-09-23T21:15:37.885Z,2.20
2018-09-23T21:18:05.956Z,2.50
2018-09-23T21:20:33.973Z,1.73
2018-09-23T21:23:02.016Z,2.40
2018-09-23T21:25:30.163Z,2.10
2018-09-23T21:27:58.257Z,1.60
2018-09-23T21:30:26.277Z,2.37
2018-09-23T21:32:54.345Z,2.50
2018-09-23T21:35:22.396Z,2.17
2018-09-23T21:37:50.725Z,2.20
2018-09-23T21:40:18.753Z,3.17
2018-09-23T21:42:46.745Z,2.30
2018-09-23T21:45:15.837Z,2.60
2018-09-23T21:47:43.850Z,2.50
2018-09-23T21:50:12.165Z,2.53
2018-09-23T21:52:40.216Z,2.40
2018-09-23T21:55:08.435Z,2.83
2018-09-23T21:57:36.478Z,2.23
2018-09-23T22:00:06.650Z,2.40
2018-09-23T22:02:34.653Z,2.27
2018-09-23T22:05:02.857Z,2.07
2018-09-23T22:07:30.951Z,1.90
2018-09-23T22:09:58.986Z,1.77
2018-09-23T22:12:27.049Z,1.40
2018-09-23T22:14:55.073Z,1.90
2018-09-23T22:17:23.112Z,1.90
2018-09-23T22:19:51.340Z,1.00
2018-09-23T22:22:19.357Z,1.50
2018-09-23T22:24:47.416Z,1.47
2018-09-23T22:27:15.456Z,1.33
2018-09-23T22:29:43.476Z,1.30
2018-09-23T22:32:11.516Z,1.40
2018-09-23T22:34:39.537Z,1.30
2018-09-23T22:37:07.552Z,1.60
2018-09-23T22:39:35.594Z,1.77
2018-09-23T22:42:03.655Z,1.33
2018-09-23T22:44:31.628Z,1.90
2018-09-23T22:46:59.668Z,2.23
2018-09-23T22:49:27.809Z,2.33
2018-09-23T22:51:56.889Z,2.23
2018-09-23T22:54:24.912Z,1.90
2018-09-23T22:56:52.926Z,3.23
2018-09-23T22:59:20.934Z,2.50
2018-09-23T23:01:48.968Z,2.10
2018-09-23T23:04:16.984Z,2.70
2018-09-23T23:06:45.025Z,2.60
2018-09-23T23:09:12.997Z,3.10
2018-09-23T23:11:41.001Z,1.90
2018-09-23T23:14:09.289Z,1.80
2018-09-23T23:16:37.297Z,1.30
2018-09-23T23:19:05.349Z,2.17
2018-09-23T23:21:33.408Z,1.77
2018-09-23T23:24:01.421Z,1.17
2018-09-23T23:26:29.444Z,1.70
2018-09-23T23:28:57.515Z,1.13
2018-09-23T23:31:25.532Z,1.83
2018-09-23T23:33:53.506Z,1.93
2018-09-23T23:36:21.493Z,1.90
2018-09-23T23:38:49.525Z,2.00
2018-09-23T23:41:17.559Z,2.27
2018-09-23T23:43:45.588Z,1.70
2018-09-23T23:46:13.576Z,1.67
2018-09-23T23:48:41.601Z,2.90
2018-09-23T23:51:09.573Z,2.10
2018-09-23T23:53:37.637Z,2.10
2018-09-23T23:56:05.713Z,1.60
2018-09-23T23:58:33.697Z,1.30
